OIAA

Abadan Airport

Abadan, Iran
TAF AMD OIAA 181910Z 1818/1924 31004MPS 3000 BR OVC020 BECMG 1822/1824 1500 BR OVC015 TEMPO 1901/1905 0500 FG OVC005 BECMG 1905/1907 3000 BR SCT020 BECMG 1907/1909 7000
Issued Valid From Valid To
Dec-18 @ 19:10 UTC
(4 hours ago)
Dec-18 @ 18:00 UTC
(5 hours ago)
Dec-20 @ 00:00 UTC
(-1 days ago)
Expired Click to View Dec-18 @ 18:00 to Dec-18 @ 22:00
TAF AMD OIAA 181910Z 1818/1924 31004MPS 3000 BR OVC020
Wind Visibility Clouds Conditions
310° at 8 knots 2,993 meters
  • Overcast at 2,000' AGL
  • Mist
Becoming Dec-18 @ 22:00 to Dec-19 @ 05:00
BECMG 1822/1824 1500 BR OVC015
Wind Visibility Clouds Conditions
310° at 8 knots 1,497 meters
  • Overcast at 1,500' AGL
  • Mist
Temporary Dec-19 @ 01:00 to Dec-19 @ 05:00
TEMPO 1901/1905 0500 FG OVC005
Visibility Clouds Conditions
499 meters
  • Overcast at 500' AGL
  • Fog
Becoming Dec-19 @ 05:00 to Dec-19 @ 07:00
BECMG 1905/1907 3000 BR SCT020
Wind Visibility Clouds Conditions
310° at 8 knots 2,993 meters
  • Scattered at 2,000' AGL
  • Mist
Becoming Dec-19 @ 07:00 to Dec-20 @ 00:00
BECMG 1907/1909 7000
Wind Visibility Clouds Conditions
310° at 8 knots 7,001 meters
  • Scattered at 2,000' AGL
  • Mist
TAF AMD OIAA 181910Z 1818/1924 31004MPS 3000 BR OVC020 BECMG 1822/1824 1500 BR OVC015 TEMPO 1901/1905 0500 FG OVC005 BECMG 1905/1907 3000 BR SCT020 BECMG 1907/1909 7000
Issued Dec-18 @ 19:10 UTC
(4 hours ago)
Valid From Dec-18 @ 18:00 UTC
(5 hours ago)
Valid To Dec-20 @ 00:00 UTC
(-1 days ago)
Dec-18 @ 18:00 - Dec-18 @ 22:00
Wind Visibility
310° at 8 knots 2,993 meters
Clouds
  • Overcast at 2,000' AGL
Conditions
  • Mist
Becoming Dec-18 @ 22:00 - Dec-19 @ 05:00
Wind Visibility
310° at 8 knots 1,497 meters
Clouds
  • Overcast at 1,500' AGL
Conditions
  • Mist
Temporary Dec-19 @ 01:00 - Dec-19 @ 05:00
Clouds
  • Overcast at 500' AGL
Conditions
  • Fog
Becoming Dec-19 @ 05:00 - Dec-19 @ 07:00
Wind Visibility
310° at 8 knots 2,993 meters
Clouds
  • Scattered at 2,000' AGL
Conditions
  • Mist
Becoming Dec-19 @ 07:00 - Dec-20 @ 00:00
Wind Visibility
310° at 8 knots 7,001 meters
Clouds
  • Scattered at 2,000' AGL
Conditions
  • Mist